sensor_id;sensor_type;location;lat;lon;timestamp;P1;P2;P0
74436;PMS7003;62868;52.360;30.424;2022-09-09T00:03:29;0;0;0
74436;PMS7003;62868;52.360;30.424;2022-09-09T00:09:02;0.3;0;0
74436;PMS7003;62868;52.360;30.424;2022-09-09T00:13:46;0;0;0
74436;PMS7003;62868;52.360;30.424;2022-09-09T00:23:34;0;0;0
74436;PMS7003;62868;52.360;30.424;2022-09-09T00:28:27;0;0;0
74436;PMS7003;62868;52.360;30.424;2022-09-09T00:33:18;0;0;0
74436;PMS7003;62868;52.360;30.424;2022-09-09T00:38:28;0;0;0
74436;PMS7003;62868;52.360;30.424;2022-09-09T00:43:38;0.3;0;0
74436;PMS7003;62868;52.360;30.424;2022-09-09T00:49:04;0;0;0
74436;PMS7003;62868;52.360;30.424;2022-09-09T00:54:19;0;0;0
74436;PMS7003;62868;52.360;30.424;2022-09-09T00:58:47;0;0;0
74436;PMS7003;62868;52.360;30.424;2022-09-09T01:03:45;0;0;0
74436;PMS7003;62868;52.360;30.424;2022-09-09T01:09:16;0;0;0
74436;PMS7003;62868;52.360;30.424;2022-09-09T01:13:55;0;0;0
74436;PMS7003;62868;52.360;30.424;2022-09-09T01:18:28;0;0;0
74436;PMS7003;62868;52.360;30.424;2022-09-09T01:28:19;0;0;0
74436;PMS7003;62868;52.360;30.424;2022-09-09T01:33:43;0.3;0;0
74436;PMS7003;62868;52.360;30.424;2022-09-09T01:38:37;0;0;0
74436;PMS7003;62868;52.360;30.424;2022-09-09T01:43:47;0;0;0
74436;PMS7003;62868;52.360;30.424;2022-09-09T01:48:41;0;0;0
74436;PMS7003;62868;52.360;30.424;2022-09-09T01:53:31;0;0;0
74436;PMS7003;62868;52.360;30.424;2022-09-09T02:03:52;0;0;0
74436;PMS7003;62868;52.360;30.424;2022-09-09T02:08:48;0;0;0
74436;PMS7003;62868;52.360;30.424;2022-09-09T02:13:34;0;0;0
74436;PMS7003;62868;52.360;30.424;2022-09-09T02:18:29;0;0;0
74436;PMS7003;62868;52.360;30.424;2022-09-09T02:23:56;0;0;0
74436;PMS7003;62868;52.360;30.424;2022-09-09T02:28:55;0;0;0
74436;PMS7003;62868;52.360;30.424;2022-09-09T02:33:17;0.3;0;0
74436;PMS7003;62868;52.360;30.424;2022-09-09T02:38:53;0;0;0
74436;PMS7003;62868;52.360;30.424;2022-09-09T02:43:55;0;0;0
74436;PMS7003;62868;52.360;30.424;2022-09-09T02:48:36;0;0;0
74436;PMS7003;62868;52.360;30.424;2022-09-09T02:53:24;0;0;0
74436;PMS7003;62868;52.360;30.424;2022-09-09T02:58:37;0;0;0
74436;PMS7003;62868;52.360;30.424;2022-09-09T03:03:27;0.3;0;0
74436;PMS7003;62868;52.360;30.424;2022-09-09T03:08:17;0;0;0
74436;PMS7003;62868;52.360;30.424;2022-09-09T03:13:37;0;0;0
74436;PMS7003;62868;52.360;30.424;2022-09-09T03:18:55;0;0;0
74436;PMS7003;62868;52.360;30.424;2022-09-09T03:23:43;0;0;0
74436;PMS7003;62868;52.360;30.424;2022-09-09T03:28:55;0;0;0
74436;PMS7003;62868;52.360;30.424;2022-09-09T03:33:37;0;0;0
74436;PMS7003;62868;52.360;30.424;2022-09-09T03:38:41;0;0;0
74436;PMS7003;62868;52.360;30.424;2022-09-09T03:43:55;0;0;0
74436;PMS7003;62868;52.360;30.424;2022-09-09T03:48:37;0;0;0
74436;PMS7003;62868;52.360;30.424;2022-09-09T03:53:18;0;0;0
74436;PMS7003;62868;52.360;30.424;2022-09-09T03:58:18;0.5;0;0
74436;PMS7003;62868;52.360;30.424;2022-09-09T04:03:35;0.7;0.3;0
74436;PMS7003;62868;52.360;30.424;2022-09-09T04:08:43;0.3;0.3;0
74436;PMS7003;62868;52.360;30.424;2022-09-09T04:13:18;0.3;0;0
74436;PMS7003;62868;52.360;30.424;2022-09-09T04:18:45;0;0;0
74436;PMS7003;62868;52.360;30.424;2022-09-09T04:23:43;0.3;0;0
74436;PMS7003;62868;52.360;30.424;2022-09-09T04:28:36;0.3;0;0
74436;PMS7003;62868;52.360;30.424;2022-09-09T04:33:46;0;0;0
74436;PMS7003;62868;52.360;30.424;2022-09-09T04:38:57;0;0;0
74436;PMS7003;62868;52.360;30.424;2022-09-09T04:43:34;1;1;0.3
74436;PMS7003;62868;52.360;30.424;2022-09-09T04:48:25;0.7;0.3;0
74436;PMS7003;62868;52.360;30.424;2022-09-09T04:53:55;0.7;0.3;0
74436;PMS7003;62868;52.360;30.424;2022-09-09T04:58:47;0.8;0.5;0.3
74436;PMS7003;62868;52.360;30.424;2022-09-09T05:03:59;1.3;0.3;0.3
74436;PMS7003;62868;52.360;30.424;2022-09-09T05:08:38;1;0;0
74436;PMS7003;62868;52.360;30.424;2022-09-09T05:13:47;0;0;0
74436;PMS7003;62868;52.360;30.424;2022-09-09T05:19:01;0.3;0.3;0
74436;PMS7003;62868;52.360;30.424;2022-09-09T05:23:37;0.3;0.3;0.3
74436;PMS7003;62868;52.360;30.424;2022-09-09T05:28:37;8;6.7;5
74436;PMS7003;62868;52.360;30.424;2022-09-09T05:33:35;16.5;12.5;7.8
74436;PMS7003;62868;52.360;30.424;2022-09-09T05:38:28;9.7;6;3.7
74436;PMS7003;62868;52.360;30.424;2022-09-09T05:43:18;4.3;4.3;3
74436;PMS7003;62868;52.360;30.424;2022-09-09T05:48:38;5.7;5.3;4
74436;PMS7003;62868;52.360;30.424;2022-09-09T05:53:59;3.8;3.3;2.3
74436;PMS7003;62868;52.360;30.424;2022-09-09T05:58:59;1.7;1.3;1
74436;PMS7003;62868;52.360;30.424;2022-09-09T06:03:48;1.3;0.3;0
74436;PMS7003;62868;52.360;30.424;2022-09-09T06:08:57;0;0;0
74436;PMS7003;62868;52.360;30.424;2022-09-09T06:13:59;0.3;0;0
74436;PMS7003;62868;52.360;30.424;2022-09-09T06:18:59;0;0;0
74436;PMS7003;62868;52.360;30.424;2022-09-09T06:23:39;0;0;0
74436;PMS7003;62868;52.360;30.424;2022-09-09T06:28:18;0;0;0
74436;PMS7003;62868;52.360;30.424;2022-09-09T06:34:00;0;0;0
74436;PMS7003;62868;52.360;30.424;2022-09-09T06:38:47;0;0;0
74436;PMS7003;62868;52.360;30.424;2022-09-09T06:43:38;0;0;0
74436;PMS7003;62868;52.360;30.424;2022-09-09T06:48:49;0;0;0
74436;PMS7003;62868;52.360;30.424;2022-09-09T06:53:50;0;0;0
74436;PMS7003;62868;52.360;30.424;2022-09-09T06:58:39;0.7;0;0
74436;PMS7003;62868;52.360;30.424;2022-09-09T07:03:48;0;0;0
74436;PMS7003;62868;52.360;30.424;2022-09-09T07:09:00;0;0;0
74436;PMS7003;62868;52.360;30.424;2022-09-09T07:13:27;0;0;0
74436;PMS7003;62868;52.360;30.424;2022-09-09T07:18:27;0;0;0
74436;PMS7003;62868;52.360;30.424;2022-09-09T07:24:01;0;0;0
74436;PMS7003;62868;52.360;30.424;2022-09-09T07:28:51;0.3;0.3;0
74436;PMS7003;62868;52.360;30.424;2022-09-09T07:34:03;0;0;0
74436;PMS7003;62868;52.360;30.424;2022-09-09T07:38:38;0;0;0
74436;PMS7003;62868;52.360;30.424;2022-09-09T07:43:50;0;0;0
74436;PMS7003;62868;52.360;30.424;2022-09-09T07:49:02;0;0;0
74436;PMS7003;62868;52.360;30.424;2022-09-09T07:53:38;0.7;0.7;0.3
74436;PMS7003;62868;52.360;30.424;2022-09-09T07:58:38;5.3;4;3.3
74436;PMS7003;62868;52.360;30.424;2022-09-09T08:03:34;2;1.3;1
74436;PMS7003;62868;52.360;30.424;2022-09-09T08:08:28;0.3;0;0
74436;PMS7003;62868;52.360;30.424;2022-09-09T08:13:40;0;0;0
74436;PMS7003;62868;52.360;30.424;2022-09-09T08:18:27;0;0;0
74436;PMS7003;62868;52.360;30.424;2022-09-09T08:24:02;0;0;0
74436;PMS7003;62868;52.360;30.424;2022-09-09T08:29:02;0.5;0;0
74436;PMS7003;62868;52.360;30.424;2022-09-09T08:33:37;6;5.3;4.7
74436;PMS7003;62868;52.360;30.424;2022-09-09T08:38:35;8.3;7;5.3
74436;PMS7003;62868;52.360;30.424;2022-09-09T08:43:50;6.3;5;3.7
74436;PMS7003;62868;52.360;30.424;2022-09-09T08:49:09;5.8;5.8;4.3
74436;PMS7003;62868;52.360;30.424;2022-09-09T08:53:28;11;9.7;8
74436;PMS7003;62868;52.360;30.424;2022-09-09T08:58:28;12.7;11.3;9
74436;PMS7003;62868;52.360;30.424;2022-09-09T09:10:00;4.8;4.5;3.3
74436;PMS7003;62868;52.360;30.424;2022-09-09T09:13:47;1.7;1.3;1.3
74436;PMS7003;62868;52.360;30.424;2022-09-09T09:18:52;1.7;1.7;1.3
74436;PMS7003;62868;52.360;30.424;2022-09-09T09:23:50;1.3;0.8;0.3
74436;PMS7003;62868;52.360;30.424;2022-09-09T09:28:47;8.7;8.3;7
74436;PMS7003;62868;52.360;30.424;2022-09-09T09:33:50;5.7;5.3;4.3
74436;PMS7003;62868;52.360;30.424;2022-09-09T09:39:00;1.7;1.7;1
74436;PMS7003;62868;52.360;30.424;2022-09-09T09:43:29;4.8;4.8;4
74436;PMS7003;62868;52.360;30.424;2022-09-09T09:48:17;4.3;3.7;3
74436;PMS7003;62868;52.360;30.424;2022-09-09T09:53:29;20.3;16.7;12
74436;PMS7003;62868;52.360;30.424;2022-09-09T09:59:01;7.7;5.7;4.3
74436;PMS7003;62868;52.360;30.424;2022-09-09T10:04:02;8.3;7;5
74436;PMS7003;62868;52.360;30.424;2022-09-09T10:08:44;1;0.3;0.3
74436;PMS7003;62868;52.360;30.424;2022-09-09T10:19:47;0;0;0
74436;PMS7003;62868;52.360;30.424;2022-09-09T10:23:48;0;0;0
74436;PMS7003;62868;52.360;30.424;2022-09-09T10:29:03;0;0;0
74436;PMS7003;62868;52.360;30.424;2022-09-09T10:33:33;0;0;0
74436;PMS7003;62868;52.360;30.424;2022-09-09T10:38:39;0;0;0
74436;PMS7003;62868;52.360;30.424;2022-09-09T10:44:46;0.3;0;0
74436;PMS7003;62868;52.360;30.424;2022-09-09T10:48:54;0.3;0;0
74436;PMS7003;62868;52.360;30.424;2022-09-09T10:54:12;5.3;4.7;4
74436;PMS7003;62868;52.360;30.424;2022-09-09T10:58:52;1.7;1;0.7
74436;PMS7003;62868;52.360;30.424;2022-09-09T11:03:41;0.3;0.3;0
74436;PMS7003;62868;52.360;30.424;2022-09-09T11:08:51;0;0;0
74436;PMS7003;62868;52.360;30.424;2022-09-09T11:14:09;0.3;0;0
74436;PMS7003;62868;52.360;30.424;2022-09-09T11:19:01;2;1.5;1.5
74436;PMS7003;62868;52.360;30.424;2022-09-09T11:23:20;0;0;0
74436;PMS7003;62868;52.360;30.424;2022-09-09T11:28:32;0;0;0
74436;PMS7003;62868;52.360;30.424;2022-09-09T11:33:35;0;0;0
74436;PMS7003;62868;52.360;30.424;2022-09-09T11:38:51;0;0;0
74436;PMS7003;62868;52.360;30.424;2022-09-09T11:43:40;0;0;0
74436;PMS7003;62868;52.360;30.424;2022-09-09T11:48:58;1.3;1;1
74436;PMS7003;62868;52.360;30.424;2022-09-09T11:53:52;2.3;2;1.3
74436;PMS7003;62868;52.360;30.424;2022-09-09T11:59:29;0.5;0.3;0
74436;PMS7003;62868;52.360;30.424;2022-09-09T12:03:33;0.3;0;0
74436;PMS7003;62868;52.360;30.424;2022-09-09T12:09:08;0;0;0
74436;PMS7003;62868;52.360;30.424;2022-09-09T12:13:18;1;0;0
74436;PMS7003;62868;52.360;30.424;2022-09-09T12:18:35;0.8;0.5;0
74436;PMS7003;62868;52.360;30.424;2022-09-09T12:23:32;0;0;0
74436;PMS7003;62868;52.360;30.424;2022-09-09T12:29:04;0.7;0.3;0
74436;PMS7003;62868;52.360;30.424;2022-09-09T12:33:49;0;0;0
74436;PMS7003;62868;52.360;30.424;2022-09-09T12:38:36;1;1;0.5
74436;PMS7003;62868;52.360;30.424;2022-09-09T12:44:03;0.3;0;0
74436;PMS7003;62868;52.360;30.424;2022-09-09T12:48:49;2;1.7;1.3
74436;PMS7003;62868;52.360;30.424;2022-09-09T12:53:37;0.7;0;0
74436;PMS7003;62868;52.360;30.424;2022-09-09T12:58:37;0;0;0
74436;PMS7003;62868;52.360;30.424;2022-09-09T13:03:41;0;0;0
74436;PMS7003;62868;52.360;30.424;2022-09-09T13:08:18;0;0;0
74436;PMS7003;62868;52.360;30.424;2022-09-09T13:13:20;5;4.3;2.5
74436;PMS7003;62868;52.360;30.424;2022-09-09T13:18:40;2.3;1.7;0.7
74436;PMS7003;62868;52.360;30.424;2022-09-09T13:23:42;0.7;0.7;0.3
74436;PMS7003;62868;52.360;30.424;2022-09-09T13:29:07;0;0;0
74436;PMS7003;62868;52.360;30.424;2022-09-09T13:34:34;0;0;0
74436;PMS7003;62868;52.360;30.424;2022-09-09T13:38:37;0;0;0
74436;PMS7003;62868;52.360;30.424;2022-09-09T13:44:04;0.3;0;0
74436;PMS7003;62868;52.360;30.424;2022-09-09T13:53:59;0.5;0;0
74436;PMS7003;62868;52.360;30.424;2022-09-09T13:58:41;1.3;1.3;0.7
74436;PMS7003;62868;52.360;30.424;2022-09-09T14:03:35;0.7;0.3;0.3
74436;PMS7003;62868;52.360;30.424;2022-09-09T14:09:02;1.3;1;0.7
74436;PMS7003;62868;52.360;30.424;2022-09-09T14:14:04;0;0;0
74436;PMS7003;62868;52.360;30.424;2022-09-09T14:18:41;0.3;0;0
74436;PMS7003;62868;52.360;30.424;2022-09-09T14:23:52;0;0;0
74436;PMS7003;62868;52.360;30.424;2022-09-09T14:28:46;0;0;0
74436;PMS7003;62868;52.360;30.424;2022-09-09T14:33:17;0.5;0.3;0
74436;PMS7003;62868;52.360;30.424;2022-09-09T14:38:50;0;0;0
74436;PMS7003;62868;52.360;30.424;2022-09-09T14:44:00;0;0;0
74436;PMS7003;62868;52.360;30.424;2022-09-09T14:48:28;0;0;0
74436;PMS7003;62868;52.360;30.424;2022-09-09T14:53:28;0.7;0.7;0.3
74436;PMS7003;62868;52.360;30.424;2022-09-09T14:59:00;0.5;0;0
74436;PMS7003;62868;52.360;30.424;2022-09-09T15:03:36;0.3;0.3;0
74436;PMS7003;62868;52.360;30.424;2022-09-09T15:09:00;2;1;0.7
74436;PMS7003;62868;52.360;30.424;2022-09-09T15:13:36;3.3;2;1
74436;PMS7003;62868;52.360;30.424;2022-09-09T15:18:50;1;1;0.5
74436;PMS7003;62868;52.360;30.424;2022-09-09T15:24:00;1;0.3;0
74436;PMS7003;62868;52.360;30.424;2022-09-09T15:28:38;0.7;0;0
74436;PMS7003;62868;52.360;30.424;2022-09-09T15:33:38;1.3;1;0.7
74436;PMS7003;62868;52.360;30.424;2022-09-09T15:38:18;1.3;0.8;0.3
74436;PMS7003;62868;52.360;30.424;2022-09-09T15:43:36;0.3;0;0
74436;PMS7003;62868;52.360;30.424;2022-09-09T15:48:42;0;0;0
74436;PMS7003;62868;52.360;30.424;2022-09-09T15:53:30;0;0;0
74436;PMS7003;62868;52.360;30.424;2022-09-09T15:59:04;0.7;0;0
74436;PMS7003;62868;52.360;30.424;2022-09-09T16:04:04;0;0;0
74436;PMS7003;62868;52.360;30.424;2022-09-09T16:08:37;15;14;9.3
74436;PMS7003;62868;52.360;30.424;2022-09-09T16:14:02;34.3;27.8;16.5
74436;PMS7003;62868;52.360;30.424;2022-09-09T16:19:05;30;25;15
74436;PMS7003;62868;52.360;30.424;2022-09-09T16:24:02;36.7;28;16.3
74436;PMS7003;62868;52.360;30.424;2022-09-09T16:28:18;37.3;26.7;14.7
74436;PMS7003;62868;52.360;30.424;2022-09-09T16:33:18;21.3;16.5;9.8
74436;PMS7003;62868;52.360;30.424;2022-09-09T16:39:03;16.7;13.7;8.7
74436;PMS7003;62868;52.360;30.424;2022-09-09T16:43:53;17;14;8.7
74436;PMS7003;62868;52.360;30.424;2022-09-09T16:48:31;17.7;15.7;8.7
74436;PMS7003;62868;52.360;30.424;2022-09-09T16:53:18;27.5;22.8;13.8
74436;PMS7003;62868;52.360;30.424;2022-09-09T16:58:50;29.7;25;13.3
74436;PMS7003;62868;52.360;30.424;2022-09-09T17:03:28;26.3;19.3;11
74436;PMS7003;62868;52.360;30.424;2022-09-09T17:08:53;17;14;8
74436;PMS7003;62868;52.360;30.424;2022-09-09T17:14:04;11.5;8;5.8
74436;PMS7003;62868;52.360;30.424;2022-09-09T17:18:28;10;8.3;5.7
74436;PMS7003;62868;52.360;30.424;2022-09-09T17:23:18;8.3;6.3;4.3
74436;PMS7003;62868;52.360;30.424;2022-09-09T17:29:02;8.7;6.7;4.3
74436;PMS7003;62868;52.360;30.424;2022-09-09T17:33:20;8.5;6.5;4.8
74436;PMS7003;62868;52.360;30.424;2022-09-09T17:39:02;7.7;5.3;4.3
74436;PMS7003;62868;52.360;30.424;2022-09-09T17:43:26;7.7;5.7;4
74436;PMS7003;62868;52.360;30.424;2022-09-09T17:49:05;6;4.3;3
74436;PMS7003;62868;52.360;30.424;2022-09-09T17:53:51;6.3;3.7;2.7
74436;PMS7003;62868;52.360;30.424;2022-09-09T17:58:38;6;5;3.3
74436;PMS7003;62868;52.360;30.424;2022-09-09T18:03:28;6;4.7;3.3
74436;PMS7003;62868;52.360;30.424;2022-09-09T18:08:28;5.5;3;1.8
74436;PMS7003;62868;52.360;30.424;2022-09-09T18:13:36;2;1.7;0.7
74436;PMS7003;62868;52.360;30.424;2022-09-09T18:18:28;0.3;0;0
74436;PMS7003;62868;52.360;30.424;2022-09-09T18:23:54;0.3;0.3;0
74436;PMS7003;62868;52.360;30.424;2022-09-09T18:29:13;2.8;1.5;1.3
74436;PMS7003;62868;52.360;30.424;2022-09-09T18:33:48;5;4;2.7
74436;PMS7003;62868;52.360;30.424;2022-09-09T18:38:44;3;2.7;1.7
74436;PMS7003;62868;52.360;30.424;2022-09-09T18:43:36;0.7;0.3;0.3
74436;PMS7003;62868;52.360;30.424;2022-09-09T18:48:46;1.5;1;0.5
74436;PMS7003;62868;52.360;30.424;2022-09-09T18:54:03;2;2;1.3
74436;PMS7003;62868;52.360;30.424;2022-09-09T18:58:28;2;1.7;1.7
74436;PMS7003;62868;52.360;30.424;2022-09-09T19:03:50;2;2;1.3
74436;PMS7003;62868;52.360;30.424;2022-09-09T19:08:26;2.5;2;1.8
74436;PMS7003;62868;52.360;30.424;2022-09-09T19:13:52;1.3;1;0.3
74436;PMS7003;62868;52.360;30.424;2022-09-09T19:18:18;0.3;0.3;0
74436;PMS7003;62868;52.360;30.424;2022-09-09T19:24:06;0.7;0.7;0.7
74436;PMS7003;62868;52.360;30.424;2022-09-09T19:28:46;0.3;0.3;0
74436;PMS7003;62868;52.360;30.424;2022-09-09T19:33:46;0;0;0
74436;PMS7003;62868;52.360;30.424;2022-09-09T19:38:51;0.7;0;0
74436;PMS7003;62868;52.360;30.424;2022-09-09T19:44:02;0.7;0.3;0
74436;PMS7003;62868;52.360;30.424;2022-09-09T19:48:19;0.3;0;0
74436;PMS7003;62868;52.360;30.424;2022-09-09T19:53:40;0.3;0;0
74436;PMS7003;62868;52.360;30.424;2022-09-09T19:58:42;0;0;0
74436;PMS7003;62868;52.360;30.424;2022-09-09T20:03:50;0.7;0.7;0
74436;PMS7003;62868;52.360;30.424;2022-09-09T20:09:02;0.7;0.3;0
74436;PMS7003;62868;52.360;30.424;2022-09-09T20:13:35;0.3;0.3;0
74436;PMS7003;62868;52.360;30.424;2022-09-09T20:19:03;2;1.7;1
74436;PMS7003;62868;52.360;30.424;2022-09-09T20:23:52;2.3;1.7;1.3
74436;PMS7003;62868;52.360;30.424;2022-09-09T20:28:36;2;1.7;1
74436;PMS7003;62868;52.360;30.424;2022-09-09T20:33:42;1.8;1.5;1
74436;PMS7003;62868;52.360;30.424;2022-09-09T20:38:18;1;0.3;0.3
74436;PMS7003;62868;52.360;30.424;2022-09-09T20:43:36;1;0.7;0
74436;PMS7003;62868;52.360;30.424;2022-09-09T20:48:30;0.5;0.5;0
74436;PMS7003;62868;52.360;30.424;2022-09-09T20:53:42;1.5;1;0
74436;PMS7003;62868;52.360;30.424;2022-09-09T20:59:05;0.7;0.7;0.3
74436;PMS7003;62868;52.360;30.424;2022-09-09T21:03:40;2.3;1.8;1.3
74436;PMS7003;62868;52.360;30.424;2022-09-09T21:08:18;5.7;5;3.7
74436;PMS7003;62868;52.360;30.424;2022-09-09T21:13:36;2;1.7;1.3
74436;PMS7003;62868;52.360;30.424;2022-09-09T21:18:46;1;0.7;0.7
74436;PMS7003;62868;52.360;30.424;2022-09-09T21:24:02;0.5;0.5;0.3
74436;PMS7003;62868;52.360;30.424;2022-09-09T21:28:50;0.3;0;0
74436;PMS7003;62868;52.360;30.424;2022-09-09T21:33:19;0;0;0
74436;PMS7003;62868;52.360;30.424;2022-09-09T21:38:20;0.3;0;0
74436;PMS7003;62868;52.360;30.424;2022-09-09T21:43:52;0.5;0;0
74436;PMS7003;62868;52.360;30.424;2022-09-09T21:48:42;0.7;0.3;0
74436;PMS7003;62868;52.360;30.424;2022-09-09T21:53:52;0;0;0
74436;PMS7003;62868;52.360;30.424;2022-09-09T21:58:46;0;0;0
74436;PMS7003;62868;52.360;30.424;2022-09-09T22:03:46;0;0;0
74436;PMS7003;62868;52.360;30.424;2022-09-09T22:08:38;0;0;0
74436;PMS7003;62868;52.360;30.424;2022-09-09T22:13:52;0.3;0;0
74436;PMS7003;62868;52.360;30.424;2022-09-09T22:19:02;0;0;0
74436;PMS7003;62868;52.360;30.424;2022-09-09T22:23:18;0;0;0
74436;PMS7003;62868;52.360;30.424;2022-09-09T22:28:36;0;0;0
74436;PMS7003;62868;52.360;30.424;2022-09-09T22:33:54;0;0;0
74436;PMS7003;62868;52.360;30.424;2022-09-09T22:38:50;0;0;0
74436;PMS7003;62868;52.360;30.424;2022-09-09T22:44:00;0;0;0
74436;PMS7003;62868;52.360;30.424;2022-09-09T22:48:36;0;0;0
74436;PMS7003;62868;52.360;30.424;2022-09-09T22:53:34;0;0;0
74436;PMS7003;62868;52.360;30.424;2022-09-09T22:59:00;0;0;0
74436;PMS7003;62868;52.360;30.424;2022-09-09T23:03:18;0;0;0
74436;PMS7003;62868;52.360;30.424;2022-09-09T23:08:36;0;0;0
74436;PMS7003;62868;52.360;30.424;2022-09-09T23:13:18;0;0;0
74436;PMS7003;62868;52.360;30.424;2022-09-09T23:18:18;0;0;0
74436;PMS7003;62868;52.360;30.424;2022-09-09T23:23:42;0.3;0;0
74436;PMS7003;62868;52.360;30.424;2022-09-09T23:28:42;0.7;0.3;0
74436;PMS7003;62868;52.360;30.424;2022-09-09T23:33:52;0;0;0
74436;PMS7003;62868;52.360;30.424;2022-09-09T23:39:01;0.3;0;0
74436;PMS7003;62868;52.360;30.424;2022-09-09T23:43:46;0;0;0
74436;PMS7003;62868;52.360;30.424;2022-09-09T23:48:50;0;0;0
74436;PMS7003;62868;52.360;30.424;2022-09-09T23:54:03;0;0;0
74436;PMS7003;62868;52.360;30.424;2022-09-09T23:59:02;0;0;0
